createdAt,value
2023-04-30T00:00:12.966Z,7.67
2023-04-30T00:02:40.152Z,7.64
2023-04-30T00:05:07.186Z,7.65
2023-04-30T00:07:34.132Z,7.67
2023-04-30T00:10:00.953Z,7.55
2023-04-30T00:12:27.673Z,7.34
2023-04-30T00:14:56.435Z,7.21
2023-04-30T00:17:23.992Z,7.45
2023-04-30T00:19:51.017Z,7.59
2023-04-30T00:22:17.851Z,7.51
2023-04-30T00:24:44.889Z,7.66
2023-04-30T00:27:11.682Z,7.64
2023-04-30T00:29:38.668Z,7.70
2023-04-30T00:32:06.365Z,7.52
2023-04-30T00:34:33.178Z,7.45
2023-04-30T00:36:59.867Z,7.18
2023-04-30T00:39:26.508Z,6.88
2023-04-30T00:41:53.182Z,6.83
2023-04-30T00:44:19.868Z,6.66
2023-04-30T00:46:46.577Z,6.52
2023-04-30T00:49:13.497Z,6.58
2023-04-30T00:51:41.578Z,6.67
2023-04-30T00:54:09.518Z,6.47
2023-04-30T00:56:36.742Z,6.06
2023-04-30T00:59:03.446Z,6.38
2023-04-30T01:01:30.712Z,6.30
2023-04-30T01:03:57.674Z,6.33
2023-04-30T01:06:26.956Z,6.25
2023-04-30T01:08:54.024Z,6.37
2023-04-30T01:11:56.392Z,6.21
2023-04-30T01:14:30.241Z,5.80
2023-04-30T01:17:08.705Z,5.90
2023-04-30T01:19:44.999Z,5.57
2023-04-30T01:22:26.840Z,5.55
2023-04-30T01:25:26.225Z,5.54
2023-04-30T01:28:02.797Z,5.67
2023-04-30T01:30:32.110Z,5.80
2023-04-30T01:32:59.354Z,5.65
2023-04-30T01:36:04.854Z,5.73
2023-04-30T01:38:46.840Z,5.87
2023-04-30T01:41:37.333Z,5.58
2023-04-30T01:44:26.002Z,5.73
2023-04-30T01:47:07.547Z,5.49
2023-04-30T01:49:52.488Z,5.55
2023-04-30T01:52:32.004Z,5.60
2023-04-30T01:55:05.775Z,5.72
2023-04-30T01:57:41.714Z,5.87
2023-04-30T02:00:11.761Z,5.59
2023-04-30T02:02:38.751Z,5.77
2023-04-30T02:05:06.068Z,5.74
2023-04-30T02:07:52.776Z,5.89
2023-04-30T02:10:22.510Z,5.84
2023-04-30T02:12:49.805Z,5.96
2023-04-30T02:15:17.186Z,5.98
2023-04-30T02:17:44.225Z,5.58
2023-04-30T02:20:11.254Z,5.70
2023-04-30T02:22:38.114Z,5.86
2023-04-30T02:25:05.767Z,5.85
2023-04-30T02:27:33.652Z,5.85
2023-04-30T02:30:01.016Z,5.92
2023-04-30T02:32:28.258Z,5.66
2023-04-30T02:34:55.092Z,5.45
2023-04-30T02:37:22.887Z,5.62
2023-04-30T02:39:49.829Z,5.31
2023-04-30T02:42:16.572Z,5.22
2023-04-30T02:44:43.656Z,5.25
2023-04-30T02:47:10.863Z,5.33
2023-04-30T02:49:37.611Z,5.45
2023-04-30T02:52:04.459Z,5.51
2023-04-30T02:54:31.702Z,5.62
2023-04-30T02:56:58.555Z,5.62
2023-04-30T02:59:25.381Z,5.27
2023-04-30T03:01:52.138Z,5.28
2023-04-30T03:04:18.963Z,5.19
2023-04-30T03:06:46.229Z,5.19
2023-04-30T03:09:12.919Z,5.02
2023-04-30T03:11:39.713Z,5.13
2023-04-30T03:14:06.494Z,5.10
2023-04-30T03:16:39.334Z,4.74
2023-04-30T03:19:06.171Z,4.93
2023-04-30T03:21:32.907Z,4.81
2023-04-30T03:23:59.714Z,4.80
2023-04-30T03:26:27.552Z,4.97
2023-04-30T03:28:55.906Z,4.96
2023-04-30T03:31:22.914Z,4.71
2023-04-30T03:33:49.710Z,5.08
2023-04-30T03:36:16.795Z,4.96
2023-04-30T03:38:43.596Z,4.72
2023-04-30T03:41:10.659Z,4.56
2023-04-30T03:43:38.210Z,4.30
2023-04-30T03:46:05.317Z,4.45
2023-04-30T03:48:32.768Z,4.57
2023-04-30T03:50:59.419Z,4.65
2023-04-30T03:53:26.869Z,4.53
2023-04-30T03:55:54.926Z,4.55
2023-04-30T03:58:21.982Z,4.64
2023-04-30T04:00:49.191Z,4.60
2023-04-30T04:03:16.941Z,4.82
2023-04-30T04:05:43.782Z,4.94
2023-04-30T04:08:10.731Z,5.23
2023-04-30T04:10:38.561Z,5.22
2023-04-30T04:13:06.568Z,5.32
2023-04-30T04:15:34.275Z,5.52
2023-04-30T04:18:01.001Z,5.65
2023-04-30T04:20:29.033Z,5.67
2023-04-30T04:22:57.425Z,5.93
2023-04-30T04:25:27.487Z,5.96
2023-04-30T04:27:54.219Z,6.02
2023-04-30T04:30:21.460Z,5.51
2023-04-30T04:32:50.329Z,5.48
2023-04-30T04:35:21.123Z,5.81
2023-04-30T04:37:47.978Z,5.84
2023-04-30T04:40:14.932Z,5.91
2023-04-30T04:42:42.227Z,6.05
2023-04-30T04:45:10.109Z,6.15
2023-04-30T04:47:37.898Z,5.66
2023-04-30T04:50:05.773Z,5.55
2023-04-30T04:52:40.355Z,5.84
2023-04-30T04:55:07.891Z,6.72
2023-04-30T04:57:34.732Z,6.95
2023-04-30T05:00:02.295Z,7.21
2023-04-30T05:02:30.107Z,7.51
2023-04-30T05:04:56.887Z,9.05
2023-04-30T05:07:23.606Z,9.30
2023-04-30T05:09:50.363Z,9.13
2023-04-30T05:12:17.252Z,9.21
2023-04-30T05:14:45.006Z,8.81
2023-04-30T05:17:11.657Z,9.05
2023-04-30T05:19:38.274Z,8.68
2023-04-30T05:22:05.644Z,8.65
2023-04-30T05:24:32.504Z,8.61
2023-04-30T05:26:59.363Z,8.88
2023-04-30T05:29:26.209Z,9.00
2023-04-30T05:31:52.992Z,8.67
2023-04-30T05:34:20.378Z,9.10
2023-04-30T05:36:47.297Z,9.14
2023-04-30T05:39:14.398Z,9.00
2023-04-30T05:41:41.137Z,8.74
2023-04-30T05:44:07.854Z,8.63
2023-04-30T05:46:35.728Z,9.00
2023-04-30T05:49:07.208Z,8.97
2023-04-30T05:51:34.305Z,8.92
2023-04-30T05:54:01.010Z,8.77
2023-04-30T05:56:27.754Z,8.91
2023-04-30T05:58:54.757Z,9.18
2023-04-30T06:01:22.345Z,9.50
2023-04-30T06:03:49.375Z,10.48
2023-04-30T06:06:16.151Z,10.16
2023-04-30T06:08:45.335Z,10.68
2023-04-30T06:11:13.548Z,10.71
2023-04-30T06:13:40.977Z,10.92
2023-04-30T06:16:08.574Z,10.66
2023-04-30T06:18:36.022Z,10.71
2023-04-30T06:21:02.838Z,10.73
2023-04-30T06:23:30.523Z,10.55
2023-04-30T06:25:57.332Z,10.65
2023-04-30T06:28:24.084Z,10.72
2023-04-30T06:30:52.082Z,11.49
2023-04-30T06:33:18.847Z,11.61
2023-04-30T06:35:45.673Z,11.81
2023-04-30T06:38:12.505Z,12.65
2023-04-30T06:40:39.246Z,12.74
2023-04-30T06:43:06.189Z,13.03
2023-04-30T06:45:32.844Z,13.58
2023-04-30T06:47:59.680Z,15.59
2023-04-30T06:50:29.019Z,15.65
2023-04-30T06:52:55.810Z,17.10
2023-04-30T06:55:22.620Z,17.40
2023-04-30T06:57:49.634Z,19.15
2023-04-30T07:00:16.851Z,20.08
2023-04-30T07:02:43.894Z,21.52
2023-04-30T07:05:11.584Z,21.59
2023-04-30T07:07:38.405Z,18.89
2023-04-30T07:10:05.971Z,20.52
2023-04-30T07:12:33.225Z,20.07
2023-04-30T07:15:00.022Z,20.10
2023-04-30T07:17:27.844Z,20.73
2023-04-30T07:19:55.135Z,21.76
2023-04-30T07:22:22.215Z,21.19
2023-04-30T07:24:49.126Z,21.40
2023-04-30T07:27:16.656Z,23.50
2023-04-30T07:29:43.464Z,21.82
2023-04-30T07:32:11.052Z,22.25
2023-04-30T07:34:38.464Z,20.40
2023-04-30T07:37:05.334Z,20.22
2023-04-30T07:39:32.729Z,18.21
2023-04-30T07:41:59.618Z,17.42
2023-04-30T07:44:26.269Z,17.02
2023-04-30T07:46:53.060Z,16.46
2023-04-30T07:49:19.877Z,15.77
2023-04-30T07:51:46.922Z,15.87
2023-04-30T07:54:13.971Z,17.19
2023-04-30T07:56:42.278Z,17.55
2023-04-30T07:59:08.964Z,19.32
2023-04-30T08:01:36.014Z,18.93
2023-04-30T08:04:03.006Z,19.85
2023-04-30T08:06:29.958Z,20.75
2023-04-30T08:08:56.751Z,22.48
2023-04-30T08:11:23.685Z,22.87
2023-04-30T08:13:50.495Z,24.03
2023-04-30T08:16:17.433Z,21.11
2023-04-30T08:18:46.612Z,19.97
2023-04-30T08:21:13.857Z,19.03
2023-04-30T08:23:40.557Z,19.13
2023-04-30T08:26:07.470Z,20.82
2023-04-30T08:28:34.395Z,21.42
2023-04-30T08:31:01.103Z,22.35
2023-04-30T08:33:27.952Z,22.66
2023-04-30T08:35:54.842Z,21.32
2023-04-30T08:38:21.921Z,20.99
2023-04-30T08:41:11.451Z,21.73
2023-04-30T08:43:38.625Z,21.70
2023-04-30T08:46:06.059Z,20.62
2023-04-30T08:48:33.508Z,20.82
2023-04-30T08:51:04.812Z,21.28
2023-04-30T08:53:35.671Z,21.41
2023-04-30T08:56:03.604Z,21.04
2023-04-30T08:58:30.350Z,20.48
2023-04-30T09:00:59.978Z,20.37
2023-04-30T09:03:28.519Z,19.75
2023-04-30T09:05:55.931Z,19.95
2023-04-30T09:08:50.623Z,19.74
2023-04-30T09:11:27.342Z,20.18
2023-04-30T09:14:02.029Z,20.67
2023-04-30T09:16:46.298Z,21.30
2023-04-30T09:19:25.519Z,21.84
2023-04-30T09:21:52.642Z,21.38
2023-04-30T09:24:19.708Z,21.14
2023-04-30T09:26:47.488Z,20.48
2023-04-30T09:29:14.487Z,20.36
2023-04-30T09:31:47.706Z,20.49
2023-04-30T09:34:15.411Z,20.04
2023-04-30T09:36:54.903Z,19.13
2023-04-30T09:39:22.304Z,19.13
2023-04-30T09:41:51.505Z,18.36
2023-04-30T09:44:32.626Z,18.33
2023-04-30T09:47:00.164Z,17.90
2023-04-30T09:49:27.497Z,17.77
2023-04-30T09:51:58.834Z,16.91
2023-04-30T09:54:30.101Z,16.95
2023-04-30T09:56:59.180Z,16.94
2023-04-30T09:59:37.868Z,16.35
2023-04-30T10:02:09.143Z,16.49
2023-04-30T10:04:38.015Z,16.73
2023-04-30T10:07:14.834Z,16.68
2023-04-30T10:09:50.404Z,17.14
2023-04-30T10:12:26.338Z,17.89
2023-04-30T10:15:00.274Z,18.54
2023-04-30T10:17:30.236Z,18.69
2023-04-30T10:20:01.877Z,19.38
2023-04-30T10:22:30.117Z,19.37
2023-04-30T10:24:57.439Z,19.58
2023-04-30T10:27:24.457Z,19.85
2023-04-30T10:29:52.030Z,20.22
2023-04-30T10:32:20.263Z,20.29
2023-04-30T10:35:00.553Z,19.40
2023-04-30T10:37:30.539Z,19.69
2023-04-30T10:39:57.397Z,19.73
2023-04-30T10:42:24.197Z,18.75
2023-04-30T10:44:51.155Z,18.22
2023-04-30T10:47:19.379Z,17.45
2023-04-30T10:49:53.535Z,17.32
2023-04-30T10:52:28.793Z,17.07
2023-04-30T10:54:55.767Z,17.01
2023-04-30T10:57:22.763Z,16.85
2023-04-30T11:00:14.604Z,16.81
2023-04-30T11:02:43.872Z,16.69
2023-04-30T11:05:13.506Z,16.10
2023-04-30T11:07:51.620Z,16.36
2023-04-30T11:10:23.388Z,16.05
2023-04-30T11:12:52.298Z,15.74
2023-04-30T11:15:22.785Z,15.90
2023-04-30T11:17:50.339Z,16.15
2023-04-30T11:20:23.129Z,15.98
2023-04-30T11:23:09.530Z,16.28
2023-04-30T11:25:41.347Z,15.47
2023-04-30T11:28:14.115Z,15.12
2023-04-30T11:30:50.402Z,15.68
2023-04-30T11:33:18.535Z,15.93
2023-04-30T11:35:45.669Z,16.06
2023-04-30T11:38:16.294Z,16.52
2023-04-30T11:40:44.338Z,16.41
2023-04-30T11:43:24.208Z,16.85
2023-04-30T11:46:15.508Z,16.88
2023-04-30T11:48:45.028Z,16.71
2023-04-30T11:51:19.031Z,16.61
2023-04-30T11:53:47.629Z,17.07
2023-04-30T11:56:14.475Z,17.64
2023-04-30T11:58:41.874Z,17.02
2023-04-30T12:01:10.230Z,16.96
2023-04-30T12:03:51.240Z,16.70
2023-04-30T12:06:28.899Z,17.07
2023-04-30T12:08:57.297Z,17.41
2023-04-30T12:11:26.496Z,17.12
2023-04-30T12:13:55.298Z,17.53
2023-04-30T12:16:23.357Z,17.42
2023-04-30T12:18:52.532Z,17.45
2023-04-30T12:21:21.121Z,17.22
2023-04-30T12:23:47.831Z,17.59
2023-04-30T12:26:14.777Z,17.93
2023-04-30T12:28:41.512Z,18.29
2023-04-30T12:31:08.746Z,17.73
2023-04-30T12:33:37.261Z,17.39
2023-04-30T12:36:04.221Z,17.08
2023-04-30T12:38:30.886Z,17.28
2023-04-30T12:40:58.344Z,16.74
2023-04-30T12:43:25.043Z,16.86
2023-04-30T12:45:54.665Z,16.35
2023-04-30T12:48:23.736Z,15.69
2023-04-30T12:50:59.594Z,15.31
2023-04-30T12:53:26.565Z,15.41
2023-04-30T12:56:13.252Z,15.32
2023-04-30T12:58:40.953Z,15.24
2023-04-30T13:01:18.705Z,14.95
2023-04-30T13:03:45.849Z,14.76
2023-04-30T13:06:13.120Z,14.55
2023-04-30T13:08:56.239Z,14.33
2023-04-30T13:11:27.139Z,14.20
2023-04-30T13:13:57.270Z,14.16
2023-04-30T13:16:27.614Z,14.35
2023-04-30T13:18:55.256Z,14.16
2023-04-30T13:21:23.192Z,14.00
2023-04-30T13:23:53.458Z,13.44
2023-04-30T13:26:21.956Z,13.28
2023-04-30T13:28:48.713Z,13.38
2023-04-30T13:31:15.926Z,13.10
2023-04-30T13:33:42.885Z,13.28
2023-04-30T13:36:09.998Z,13.20
2023-04-30T13:38:36.721Z,13.32
2023-04-30T13:41:03.425Z,13.38
2023-04-30T13:43:30.158Z,13.55
2023-04-30T13:45:58.591Z,13.32
2023-04-30T13:48:25.580Z,13.17
2023-04-30T13:50:56.230Z,13.14
2023-04-30T13:53:23.484Z,13.30
2023-04-30T13:55:50.198Z,13.33
2023-04-30T13:58:17.100Z,13.40
2023-04-30T14:00:43.871Z,13.53
2023-04-30T14:03:11.587Z,13.63
2023-04-30T14:05:39.590Z,13.47
2023-04-30T14:08:06.330Z,13.39
2023-04-30T14:10:33.465Z,13.12
2023-04-30T14:13:00.253Z,13.03
2023-04-30T14:15:30.613Z,12.67
2023-04-30T14:17:57.523Z,12.57
2023-04-30T14:20:25.400Z,12.32
2023-04-30T14:22:52.476Z,12.17
2023-04-30T14:25:26.037Z,12.10
2023-04-30T14:27:53.002Z,12.08
2023-04-30T14:30:19.718Z,12.08
2023-04-30T14:32:46.458Z,11.88
2023-04-30T14:35:13.375Z,11.78
2023-04-30T14:37:40.088Z,11.71
2023-04-30T14:40:08.148Z,11.53
2023-04-30T14:42:34.921Z,11.48
2023-04-30T14:45:01.712Z,11.45
2023-04-30T14:47:29.377Z,11.38
2023-04-30T14:49:59.027Z,11.44
2023-04-30T14:52:26.057Z,11.46
2023-04-30T14:54:53.166Z,11.32
2023-04-30T14:57:20.005Z,11.53
2023-04-30T14:59:46.766Z,11.62
2023-04-30T15:02:13.968Z,11.65
2023-04-30T15:04:46.156Z,11.85
2023-04-30T15:07:13.889Z,11.69
2023-04-30T15:09:40.941Z,11.88
2023-04-30T15:12:07.711Z,11.61
2023-04-30T15:14:34.389Z,11.59
2023-04-30T15:17:01.382Z,11.85
2023-04-30T15:19:28.085Z,11.83
2023-04-30T15:21:54.884Z,11.54
2023-04-30T15:24:22.393Z,11.61
2023-04-30T15:26:51.266Z,11.50
2023-04-30T15:29:18.126Z,11.32
2023-04-30T15:31:45.046Z,11.15
2023-04-30T15:34:11.888Z,11.20
2023-04-30T15:36:39.078Z,11.24
2023-04-30T15:39:05.912Z,11.19
2023-04-30T15:41:32.591Z,11.06
2023-04-30T15:43:59.297Z,10.96
2023-04-30T15:46:26.201Z,11.08
2023-04-30T15:48:52.921Z,11.12
2023-04-30T15:51:19.647Z,11.23
2023-04-30T15:53:46.408Z,11.26
2023-04-30T15:56:13.103Z,11.34
2023-04-30T15:58:40.254Z,11.40
2023-04-30T16:01:07.028Z,11.30
2023-04-30T16:03:33.880Z,11.32
2023-04-30T16:06:01.062Z,11.21
2023-04-30T16:08:27.971Z,11.29
2023-04-30T16:10:55.026Z,11.08
2023-04-30T16:13:21.758Z,11.24
2023-04-30T16:15:48.759Z,11.01
2023-04-30T16:18:15.432Z,11.08
2023-04-30T16:20:43.130Z,10.76
2023-04-30T16:23:09.853Z,11.00
2023-04-30T16:25:37.151Z,10.97
2023-04-30T16:28:04.280Z,10.90
2023-04-30T16:30:31.865Z,10.82
2023-04-30T16:32:58.676Z,10.86
2023-04-30T16:35:25.540Z,10.87
2023-04-30T16:37:54.486Z,10.58
2023-04-30T16:40:21.839Z,10.94
2023-04-30T16:42:49.886Z,10.93
2023-04-30T16:45:17.303Z,10.98
2023-04-30T16:47:45.152Z,11.07
2023-04-30T16:50:11.871Z,10.87
2023-04-30T16:52:38.665Z,10.81
2023-04-30T16:55:05.755Z,10.98
2023-04-30T16:57:33.200Z,10.72
2023-04-30T17:00:00.275Z,10.62
2023-04-30T17:02:27.359Z,10.51
2023-04-30T17:04:54.296Z,10.16
2023-04-30T17:07:21.314Z,10.35
2023-04-30T17:09:48.262Z,10.15
2023-04-30T17:12:15.180Z,10.21
2023-04-30T17:14:42.288Z,10.09
2023-04-30T17:17:08.978Z,10.03
2023-04-30T17:19:40.427Z,10.02
2023-04-30T17:22:07.501Z,9.76
2023-04-30T17:24:34.219Z,9.86
2023-04-30T17:27:03.412Z,9.86
2023-04-30T17:29:30.385Z,9.78
2023-04-30T17:31:57.295Z,9.57
2023-04-30T17:34:24.254Z,9.58
2023-04-30T17:36:51.192Z,9.54
2023-04-30T17:39:18.957Z,9.44
2023-04-30T17:41:46.195Z,9.34
2023-04-30T17:44:13.091Z,9.19
2023-04-30T17:46:40.513Z,9.16
2023-04-30T17:49:08.249Z,9.15
2023-04-30T17:51:35.535Z,8.96
2023-04-30T17:54:02.585Z,8.94
2023-04-30T17:56:33.537Z,9.17
2023-04-30T17:59:01.120Z,9.10
2023-04-30T18:01:27.999Z,9.22
2023-04-30T18:03:55.420Z,9.25
2023-04-30T18:06:22.382Z,9.00
2023-04-30T18:08:49.580Z,9.00
2023-04-30T18:11:16.346Z,8.91
2023-04-30T18:13:43.281Z,8.91
2023-04-30T18:16:10.797Z,8.68
2023-04-30T18:18:37.717Z,8.61
2023-04-30T18:21:04.552Z,8.77
2023-04-30T18:23:31.823Z,8.77
2023-04-30T18:25:58.526Z,8.77
2023-04-30T18:28:25.797Z,8.71
2023-04-30T18:30:52.783Z,8.66
2023-04-30T18:33:19.615Z,8.65
2023-04-30T18:35:51.697Z,8.65
2023-04-30T18:38:18.781Z,8.56
2023-04-30T18:40:45.502Z,8.56
2023-04-30T18:43:13.351Z,8.59
2023-04-30T18:45:40.127Z,8.58
2023-04-30T18:48:08.114Z,8.61
2023-04-30T18:50:35.318Z,8.56
2023-04-30T18:53:02.279Z,8.20
2023-04-30T18:55:29.001Z,7.74
2023-04-30T18:57:56.499Z,7.62
2023-04-30T19:00:23.258Z,7.81
2023-04-30T19:02:50.882Z,7.96
2023-04-30T19:05:18.054Z,7.82
2023-04-30T19:07:45.183Z,7.90
2023-04-30T19:10:12.121Z,7.94
2023-04-30T19:12:44.232Z,7.57
2023-04-30T19:15:15.530Z,7.23
2023-04-30T19:17:42.528Z,7.20
2023-04-30T19:20:10.536Z,7.28
2023-04-30T19:22:37.865Z,7.36
2023-04-30T19:25:05.828Z,7.51
2023-04-30T19:27:32.567Z,7.57
2023-04-30T19:29:59.482Z,7.80
2023-04-30T19:32:26.449Z,7.66
2023-04-30T19:34:54.082Z,7.37
2023-04-30T19:37:20.740Z,7.03
2023-04-30T19:39:47.630Z,7.09
2023-04-30T19:42:14.575Z,6.78
2023-04-30T19:44:41.468Z,7.12
2023-04-30T19:47:08.461Z,7.25
2023-04-30T19:49:35.420Z,7.04
2023-04-30T19:52:02.632Z,7.21
2023-04-30T19:54:29.560Z,7.09
2023-04-30T19:56:58.412Z,6.88
2023-04-30T19:59:27.130Z,6.75
2023-04-30T20:01:53.994Z,7.06
2023-04-30T20:04:21.834Z,7.17
2023-04-30T20:06:52.127Z,6.71
2023-04-30T20:09:18.982Z,6.49
2023-04-30T20:11:49.568Z,6.35
2023-04-30T20:14:16.278Z,6.41
2023-04-30T20:16:43.083Z,6.37
2023-04-30T20:19:09.994Z,6.26
2023-04-30T20:21:36.713Z,6.41
2023-04-30T20:24:04.372Z,6.62
2023-04-30T20:26:31.200Z,6.62
2023-04-30T20:28:57.985Z,6.76
2023-04-30T20:31:25.406Z,6.82
2023-04-30T20:33:52.645Z,6.70
2023-04-30T20:36:20.359Z,6.60
2023-04-30T20:38:47.245Z,6.44
2023-04-30T20:41:13.957Z,6.31
2023-04-30T20:43:41.685Z,6.14
2023-04-30T20:46:08.320Z,6.25
2023-04-30T20:48:35.117Z,6.34
2023-04-30T20:51:01.944Z,6.61
2023-04-30T20:53:28.785Z,6.63
2023-04-30T20:56:00.180Z,6.69
2023-04-30T20:58:27.759Z,6.72
2023-04-30T21:00:54.622Z,6.61
2023-04-30T21:03:21.505Z,6.33
2023-04-30T21:05:48.764Z,6.50
2023-04-30T21:08:15.563Z,6.30
2023-04-30T21:10:42.466Z,6.32
2023-04-30T21:13:11.518Z,6.41
2023-04-30T21:15:39.914Z,6.50
2023-04-30T21:18:06.792Z,6.30
2023-04-30T21:20:34.364Z,6.31
2023-04-30T21:23:02.566Z,5.88
2023-04-30T21:25:29.411Z,5.95
2023-04-30T21:27:56.153Z,5.99
2023-04-30T21:30:25.159Z,6.19
2023-04-30T21:32:58.215Z,6.22
2023-04-30T21:35:25.770Z,6.15
2023-04-30T21:37:52.530Z,5.92
2023-04-30T21:40:19.512Z,5.58
2023-04-30T21:42:46.308Z,5.77
2023-04-30T21:45:13.341Z,5.85
2023-04-30T21:47:40.316Z,5.84
2023-04-30T21:50:07.922Z,5.92
2023-04-30T21:52:34.844Z,5.99
2023-04-30T21:55:01.677Z,6.04
2023-04-30T21:57:28.404Z,6.05
2023-04-30T21:59:55.257Z,6.06
2023-04-30T22:02:24.342Z,5.86
2023-04-30T22:04:53.438Z,5.80
2023-04-30T22:07:20.070Z,5.72
2023-04-30T22:09:47.127Z,5.60
2023-04-30T22:12:14.944Z,5.73
2023-04-30T22:14:41.680Z,5.63
2023-04-30T22:17:08.627Z,5.60
2023-04-30T22:19:37.102Z,5.59
2023-04-30T22:22:03.990Z,5.59
2023-04-30T22:24:30.961Z,5.70
2023-04-30T22:26:57.890Z,5.55
2023-04-30T22:29:24.554Z,5.35
2023-04-30T22:31:51.327Z,5.38
2023-04-30T22:34:19.508Z,5.55
2023-04-30T22:36:46.405Z,5.51
2023-04-30T22:39:13.471Z,5.39
2023-04-30T22:41:40.630Z,5.69
2023-04-30T22:44:07.727Z,5.21
2023-04-30T22:46:36.858Z,5.12
2023-04-30T22:49:03.913Z,4.88
2023-04-30T22:51:31.809Z,4.88
2023-04-30T22:53:58.925Z,4.82
2023-04-30T22:56:25.855Z,4.88
2023-04-30T22:58:53.303Z,5.04
2023-04-30T23:01:20.316Z,4.88
2023-04-30T23:03:47.052Z,5.12
2023-04-30T23:06:14.581Z,5.18
2023-04-30T23:08:41.526Z,5.16
2023-04-30T23:11:09.518Z,5.17
2023-04-30T23:13:36.239Z,5.17
2023-04-30T23:16:05.820Z,5.01
2023-04-30T23:18:32.716Z,4.94
2023-04-30T23:20:59.736Z,4.98
2023-04-30T23:23:30.207Z,5.05
2023-04-30T23:25:57.196Z,5.06
2023-04-30T23:28:26.625Z,4.94
2023-04-30T23:30:55.009Z,5.02
2023-04-30T23:33:21.866Z,4.95
2023-04-30T23:35:48.622Z,4.60
2023-04-30T23:38:16.437Z,4.72
2023-04-30T23:40:46.779Z,4.75
2023-04-30T23:43:13.519Z,4.61
2023-04-30T23:45:42.472Z,4.59
2023-04-30T23:48:10.450Z,4.71
2023-04-30T23:50:40.124Z,4.69
2023-04-30T23:53:06.922Z,4.58
2023-04-30T23:55:35.122Z,4.49
2023-04-30T23:58:01.829Z,4.21
